sensor_id;sensor_type;location;lat;lon;timestamp;P1;durP1;ratioP1;P2;durP2;ratioP2
28519;SDS011;15732;48.534;20.382;2023-03-01T00:01:37;13.70;;;4.72;;
28519;SDS011;15732;48.534;20.382;2023-03-01T00:04:04;13.15;;;4.80;;
28519;SDS011;15732;48.534;20.382;2023-03-01T00:06:31;9.32;;;3.72;;
28519;SDS011;15732;48.534;20.382;2023-03-01T00:09:02;15.48;;;4.35;;
28519;SDS011;15732;48.534;20.382;2023-03-01T00:11:30;9.05;;;3.90;;
28519;SDS011;15732;48.534;20.382;2023-03-01T00:13:59;10.57;;;4.03;;
28519;SDS011;15732;48.534;20.382;2023-03-01T00:16:29;10.88;;;3.85;;
28519;SDS011;15732;48.534;20.382;2023-03-01T00:18:57;7.10;;;3.17;;
28519;SDS011;15732;48.534;20.382;2023-03-01T00:21:28;17.05;;;4.65;;
28519;SDS011;15732;48.534;20.382;2023-03-01T00:23:55;6.75;;;2.95;;
28519;SDS011;15732;48.534;20.382;2023-03-01T00:26:24;14.05;;;3.97;;
28519;SDS011;15732;48.534;20.382;2023-03-01T00:28:51;11.85;;;4.50;;
28519;SDS011;15732;48.534;20.382;2023-03-01T00:31:24;8.38;;;4.53;;
28519;SDS011;15732;48.534;20.382;2023-03-01T00:34:16;11.05;;;4.47;;
28519;SDS011;15732;48.534;20.382;2023-03-01T00:36:43;26.13;;;6.70;;
28519;SDS011;15732;48.534;20.382;2023-03-01T00:39:12;12.45;;;5.50;;
28519;SDS011;15732;48.534;20.382;2023-03-01T00:41:44;14.80;;;5.93;;
28519;SDS011;15732;48.534;20.382;2023-03-01T00:44:12;17.25;;;7.18;;
28519;SDS011;15732;48.534;20.382;2023-03-01T00:46:39;15.90;;;7.15;;
28519;SDS011;15732;48.534;20.382;2023-03-01T00:49:07;28.20;;;8.18;;
28519;SDS011;15732;48.534;20.382;2023-03-01T00:51:34;12.02;;;5.85;;
28519;SDS011;15732;48.534;20.382;2023-03-01T00:54:06;16.83;;;5.95;;
28519;SDS011;15732;48.534;20.382;2023-03-01T00:56:40;9.60;;;5.15;;
28519;SDS011;15732;48.534;20.382;2023-03-01T00:59:07;16.08;;;5.50;;
28519;SDS011;15732;48.534;20.382;2023-03-01T01:01:34;12.57;;;4.53;;
28519;SDS011;15732;48.534;20.382;2023-03-01T01:04:04;14.02;;;5.22;;
28519;SDS011;15732;48.534;20.382;2023-03-01T01:06:33;14.52;;;5.20;;
28519;SDS011;15732;48.534;20.382;2023-03-01T01:09:11;16.23;;;6.85;;
28519;SDS011;15732;48.534;20.382;2023-03-01T01:11:44;10.15;;;4.45;;
28519;SDS011;15732;48.534;20.382;2023-03-01T01:14:18;13.98;;;5.00;;
28519;SDS011;15732;48.534;20.382;2023-03-01T01:16:45;9.25;;;3.13;;
28519;SDS011;15732;48.534;20.382;2023-03-01T01:19:13;7.82;;;5.10;;
28519;SDS011;15732;48.534;20.382;2023-03-01T01:21:40;11.75;;;3.97;;
28519;SDS011;15732;48.534;20.382;2023-03-01T01:24:08;9.80;;;4.65;;
28519;SDS011;15732;48.534;20.382;2023-03-01T01:26:40;11.30;;;4.50;;
28519;SDS011;15732;48.534;20.382;2023-03-01T01:29:08;5.88;;;2.88;;
28519;SDS011;15732;48.534;20.382;2023-03-01T01:31:36;10.30;;;3.85;;
28519;SDS011;15732;48.534;20.382;2023-03-01T01:34:05;11.45;;;4.95;;
28519;SDS011;15732;48.534;20.382;2023-03-01T01:36:34;6.05;;;2.85;;
28519;SDS011;15732;48.534;20.382;2023-03-01T01:39:01;9.27;;;4.00;;
28519;SDS011;15732;48.534;20.382;2023-03-01T01:41:32;13.40;;;5.00;;
28519;SDS011;15732;48.534;20.382;2023-03-01T01:46:38;9.38;;;3.85;;
28519;SDS011;15732;48.534;20.382;2023-03-01T01:51:45;14.18;;;5.88;;
28519;SDS011;15732;48.534;20.382;2023-03-01T01:54:21;8.43;;;3.80;;
28519;SDS011;15732;48.534;20.382;2023-03-01T01:57:10;11.30;;;5.15;;
28519;SDS011;15732;48.534;20.382;2023-03-01T01:59:40;14.15;;;5.72;;
28519;SDS011;15732;48.534;20.382;2023-03-01T02:02:11;9.38;;;3.60;;
28519;SDS011;15732;48.534;20.382;2023-03-01T02:04:39;11.27;;;4.23;;
28519;SDS011;15732;48.534;20.382;2023-03-01T02:07:17;7.45;;;3.60;;
28519;SDS011;15732;48.534;20.382;2023-03-01T02:09:47;9.23;;;3.47;;
28519;SDS011;15732;48.534;20.382;2023-03-01T02:12:16;10.60;;;4.00;;
28519;SDS011;15732;48.534;20.382;2023-03-01T02:14:45;12.27;;;4.28;;
28519;SDS011;15732;48.534;20.382;2023-03-01T02:17:13;14.38;;;3.90;;
28519;SDS011;15732;48.534;20.382;2023-03-01T02:22:20;12.55;;;5.35;;
28519;SDS011;15732;48.534;20.382;2023-03-01T02:25:03;12.15;;;4.22;;
28519;SDS011;15732;48.534;20.382;2023-03-01T02:27:53;7.25;;;2.95;;
28519;SDS011;15732;48.534;20.382;2023-03-01T02:30:21;12.15;;;5.38;;
28519;SDS011;15732;48.534;20.382;2023-03-01T02:32:54;10.43;;;3.92;;
28519;SDS011;15732;48.534;20.382;2023-03-01T02:35:29;11.07;;;3.53;;
28519;SDS011;15732;48.534;20.382;2023-03-01T02:38:02;5.32;;;2.75;;
28519;SDS011;15732;48.534;20.382;2023-03-01T02:40:32;9.15;;;3.55;;
28519;SDS011;15732;48.534;20.382;2023-03-01T02:43:03;9.82;;;4.00;;
28519;SDS011;15732;48.534;20.382;2023-03-01T02:45:34;10.50;;;4.10;;
28519;SDS011;15732;48.534;20.382;2023-03-01T02:48:02;9.52;;;3.47;;
28519;SDS011;15732;48.534;20.382;2023-03-01T02:53:11;9.85;;;4.00;;
28519;SDS011;15732;48.534;20.382;2023-03-01T02:55:43;18.08;;;3.08;;
28519;SDS011;15732;48.534;20.382;2023-03-01T02:58:10;14.80;;;3.60;;
28519;SDS011;15732;48.534;20.382;2023-03-01T03:00:42;6.63;;;3.17;;
28519;SDS011;15732;48.534;20.382;2023-03-01T03:03:16;8.27;;;4.05;;
28519;SDS011;15732;48.534;20.382;2023-03-01T03:05:45;10.45;;;3.92;;
28519;SDS011;15732;48.534;20.382;2023-03-01T03:08:17;9.15;;;4.25;;
28519;SDS011;15732;48.534;20.382;2023-03-01T03:10:49;10.90;;;4.20;;
28519;SDS011;15732;48.534;20.382;2023-03-01T03:13:20;12.20;;;4.25;;
28519;SDS011;15732;48.534;20.382;2023-03-01T03:15:48;8.82;;;3.42;;
28519;SDS011;15732;48.534;20.382;2023-03-01T03:18:16;9.18;;;3.67;;
28519;SDS011;15732;48.534;20.382;2023-03-01T03:20:43;10.93;;;3.80;;
28519;SDS011;15732;48.534;20.382;2023-03-01T03:23:11;11.40;;;4.32;;
28519;SDS011;15732;48.534;20.382;2023-03-01T03:25:39;10.82;;;4.28;;
28519;SDS011;15732;48.534;20.382;2023-03-01T03:28:10;10.18;;;3.63;;
28519;SDS011;15732;48.534;20.382;2023-03-01T03:30:38;9.38;;;2.92;;
28519;SDS011;15732;48.534;20.382;2023-03-01T03:33:06;6.97;;;3.75;;
28519;SDS011;15732;48.534;20.382;2023-03-01T03:35:44;6.82;;;2.75;;
28519;SDS011;15732;48.534;20.382;2023-03-01T03:38:17;6.75;;;3.08;;
28519;SDS011;15732;48.534;20.382;2023-03-01T03:40:49;10.57;;;3.85;;
28519;SDS011;15732;48.534;20.382;2023-03-01T03:43:22;7.55;;;3.13;;
28519;SDS011;15732;48.534;20.382;2023-03-01T03:45:49;3.00;;;1.92;;
28519;SDS011;15732;48.534;20.382;2023-03-01T03:48:20;12.45;;;3.15;;
28519;SDS011;15732;48.534;20.382;2023-03-01T03:50:53;14.95;;;3.67;;
28519;SDS011;15732;48.534;20.382;2023-03-01T03:53:22;9.27;;;4.57;;
28519;SDS011;15732;48.534;20.382;2023-03-01T03:55:54;5.07;;;3.28;;
28519;SDS011;15732;48.534;20.382;2023-03-01T03:58:26;7.00;;;2.05;;
28519;SDS011;15732;48.534;20.382;2023-03-01T04:00:58;14.77;;;3.55;;
28519;SDS011;15732;48.534;20.382;2023-03-01T04:03:29;12.68;;;4.13;;
28519;SDS011;15732;48.534;20.382;2023-03-01T04:05:58;8.98;;;3.63;;
28519;SDS011;15732;48.534;20.382;2023-03-01T04:08:26;12.75;;;3.80;;
28519;SDS011;15732;48.534;20.382;2023-03-01T04:10:57;8.40;;;3.15;;
28519;SDS011;15732;48.534;20.382;2023-03-01T04:13:26;7.40;;;3.75;;
28519;SDS011;15732;48.534;20.382;2023-03-01T04:15:58;13.75;;;4.90;;
28519;SDS011;15732;48.534;20.382;2023-03-01T04:18:29;7.35;;;3.50;;
28519;SDS011;15732;48.534;20.382;2023-03-01T04:20:56;9.65;;;4.35;;
28519;SDS011;15732;48.534;20.382;2023-03-01T04:23:24;14.02;;;4.20;;
28519;SDS011;15732;48.534;20.382;2023-03-01T04:28:23;11.13;;;4.15;;
28519;SDS011;15732;48.534;20.382;2023-03-01T04:30:54;7.80;;;3.20;;
28519;SDS011;15732;48.534;20.382;2023-03-01T04:33:23;20.25;;;4.57;;
28519;SDS011;15732;48.534;20.382;2023-03-01T04:35:51;12.45;;;3.35;;
28519;SDS011;15732;48.534;20.382;2023-03-01T04:38:18;6.90;;;3.83;;
28519;SDS011;15732;48.534;20.382;2023-03-01T04:40:50;9.63;;;3.97;;
28519;SDS011;15732;48.534;20.382;2023-03-01T04:43:21;9.40;;;3.35;;
28519;SDS011;15732;48.534;20.382;2023-03-01T04:45:48;11.48;;;3.50;;
28519;SDS011;15732;48.534;20.382;2023-03-01T04:48:16;10.73;;;4.50;;
28519;SDS011;15732;48.534;20.382;2023-03-01T04:50:44;9.02;;;3.45;;
28519;SDS011;15732;48.534;20.382;2023-03-01T04:53:11;8.38;;;3.50;;
28519;SDS011;15732;48.534;20.382;2023-03-01T04:55:38;12.52;;;4.55;;
28519;SDS011;15732;48.534;20.382;2023-03-01T04:58:06;14.88;;;4.07;;
28519;SDS011;15732;48.534;20.382;2023-03-01T05:00:33;9.80;;;4.35;;
28519;SDS011;15732;48.534;20.382;2023-03-01T05:03:01;7.97;;;3.58;;
28519;SDS011;15732;48.534;20.382;2023-03-01T05:07:56;10.85;;;3.80;;
28519;SDS011;15732;48.534;20.382;2023-03-01T05:10:24;12.15;;;4.70;;
28519;SDS011;15732;48.534;20.382;2023-03-01T05:12:59;8.57;;;2.92;;
28519;SDS011;15732;48.534;20.382;2023-03-01T05:15:28;11.80;;;4.95;;
28519;SDS011;15732;48.534;20.382;2023-03-01T05:17:57;13.75;;;4.43;;
28519;SDS011;15732;48.534;20.382;2023-03-01T05:20:25;7.28;;;3.83;;
28519;SDS011;15732;48.534;20.382;2023-03-01T05:22:58;9.80;;;3.55;;
28519;SDS011;15732;48.534;20.382;2023-03-01T05:25:25;9.13;;;3.95;;
28519;SDS011;15732;48.534;20.382;2023-03-01T05:28:02;10.40;;;2.40;;
28519;SDS011;15732;48.534;20.382;2023-03-01T05:32:57;10.10;;;3.72;;
28519;SDS011;15732;48.534;20.382;2023-03-01T05:35:29;10.00;;;3.88;;
28519;SDS011;15732;48.534;20.382;2023-03-01T05:37:58;9.07;;;3.92;;
28519;SDS011;15732;48.534;20.382;2023-03-01T05:40:25;10.77;;;3.65;;
28519;SDS011;15732;48.534;20.382;2023-03-01T05:42:54;14.88;;;4.15;;
28519;SDS011;15732;48.534;20.382;2023-03-01T05:45:26;11.13;;;3.30;;
28519;SDS011;15732;48.534;20.382;2023-03-01T05:47:54;12.13;;;3.80;;
28519;SDS011;15732;48.534;20.382;2023-03-01T05:50:28;7.45;;;3.60;;
28519;SDS011;15732;48.534;20.382;2023-03-01T05:53:16;10.07;;;3.90;;
28519;SDS011;15732;48.534;20.382;2023-03-01T05:55:48;10.85;;;4.60;;
28519;SDS011;15732;48.534;20.382;2023-03-01T05:58:18;12.57;;;3.72;;
28519;SDS011;15732;48.534;20.382;2023-03-01T06:00:50;17.45;;;4.03;;
28519;SDS011;15732;48.534;20.382;2023-03-01T06:03:21;9.07;;;3.97;;
28519;SDS011;15732;48.534;20.382;2023-03-01T06:05:55;14.90;;;4.38;;
28519;SDS011;15732;48.534;20.382;2023-03-01T06:08:27;7.75;;;3.42;;
28519;SDS011;15732;48.534;20.382;2023-03-01T06:10:59;10.48;;;3.33;;
28519;SDS011;15732;48.534;20.382;2023-03-01T06:13:30;11.32;;;3.40;;
28519;SDS011;15732;48.534;20.382;2023-03-01T06:15:58;13.18;;;3.55;;
28519;SDS011;15732;48.534;20.382;2023-03-01T06:18:25;10.85;;;3.55;;
28519;SDS011;15732;48.534;20.382;2023-03-01T06:20:53;13.85;;;3.30;;
28519;SDS011;15732;48.534;20.382;2023-03-01T06:23:21;13.30;;;3.92;;
28519;SDS011;15732;48.534;20.382;2023-03-01T06:25:49;7.68;;;4.25;;
28519;SDS011;15732;48.534;20.382;2023-03-01T06:28:20;11.25;;;4.00;;
28519;SDS011;15732;48.534;20.382;2023-03-01T06:30:50;11.45;;;3.70;;
28519;SDS011;15732;48.534;20.382;2023-03-01T06:33:18;12.98;;;3.67;;
28519;SDS011;15732;48.534;20.382;2023-03-01T06:35:50;12.10;;;4.43;;
28519;SDS011;15732;48.534;20.382;2023-03-01T06:38:21;10.23;;;3.90;;
28519;SDS011;15732;48.534;20.382;2023-03-01T06:40:53;10.57;;;4.32;;
28519;SDS011;15732;48.534;20.382;2023-03-01T06:43:22;8.05;;;3.00;;
28519;SDS011;15732;48.534;20.382;2023-03-01T06:45:49;13.77;;;4.65;;
28519;SDS011;15732;48.534;20.382;2023-03-01T06:48:17;13.20;;;4.32;;
28519;SDS011;15732;48.534;20.382;2023-03-01T06:50:44;15.68;;;4.32;;
28519;SDS011;15732;48.534;20.382;2023-03-01T06:53:12;10.52;;;4.40;;
28519;SDS011;15732;48.534;20.382;2023-03-01T06:55:39;7.78;;;3.22;;
28519;SDS011;15732;48.534;20.382;2023-03-01T06:58:11;11.73;;;3.78;;
28519;SDS011;15732;48.534;20.382;2023-03-01T07:00:38;7.20;;;3.40;;
28519;SDS011;15732;48.534;20.382;2023-03-01T07:03:06;6.60;;;3.63;;
28519;SDS011;15732;48.534;20.382;2023-03-01T07:05:38;10.30;;;4.05;;
28519;SDS011;15732;48.534;20.382;2023-03-01T07:08:05;9.02;;;3.95;;
28519;SDS011;15732;48.534;20.382;2023-03-01T07:10:36;10.73;;;4.68;;
28519;SDS011;15732;48.534;20.382;2023-03-01T07:13:03;8.50;;;3.03;;
28519;SDS011;15732;48.534;20.382;2023-03-01T07:15:32;8.52;;;3.90;;
28519;SDS011;15732;48.534;20.382;2023-03-01T07:17:59;9.85;;;3.35;;
28519;SDS011;15732;48.534;20.382;2023-03-01T07:20:26;8.93;;;2.95;;
28519;SDS011;15732;48.534;20.382;2023-03-01T07:22:54;10.80;;;2.70;;
28519;SDS011;15732;48.534;20.382;2023-03-01T07:25:24;9.27;;;3.20;;
28519;SDS011;15732;48.534;20.382;2023-03-01T07:27:52;10.75;;;4.38;;
28519;SDS011;15732;48.534;20.382;2023-03-01T07:30:19;14.55;;;3.95;;
28519;SDS011;15732;48.534;20.382;2023-03-01T07:32:46;8.60;;;2.83;;
28519;SDS011;15732;48.534;20.382;2023-03-01T07:35:18;7.07;;;2.85;;
28519;SDS011;15732;48.534;20.382;2023-03-01T07:37:49;6.35;;;2.85;;
28519;SDS011;15732;48.534;20.382;2023-03-01T07:40:20;6.30;;;3.25;;
28519;SDS011;15732;48.534;20.382;2023-03-01T07:42:48;13.63;;;3.17;;
28519;SDS011;15732;48.534;20.382;2023-03-01T07:45:15;5.53;;;2.33;;
28519;SDS011;15732;48.534;20.382;2023-03-01T07:47:46;5.25;;;2.60;;
28519;SDS011;15732;48.534;20.382;2023-03-01T07:50:14;5.57;;;2.28;;
28519;SDS011;15732;48.534;20.382;2023-03-01T07:52:44;7.93;;;3.38;;
28519;SDS011;15732;48.534;20.382;2023-03-01T07:55:11;8.05;;;3.28;;
28519;SDS011;15732;48.534;20.382;2023-03-01T07:57:39;5.97;;;2.97;;
28519;SDS011;15732;48.534;20.382;2023-03-01T08:00:07;9.25;;;3.58;;
28519;SDS011;15732;48.534;20.382;2023-03-01T08:02:35;8.00;;;3.22;;
28519;SDS011;15732;48.534;20.382;2023-03-01T08:05:03;6.22;;;2.28;;
28519;SDS011;15732;48.534;20.382;2023-03-01T08:07:30;6.60;;;2.43;;
28519;SDS011;15732;48.534;20.382;2023-03-01T08:10:09;5.03;;;2.53;;
28519;SDS011;15732;48.534;20.382;2023-03-01T08:12:37;10.65;;;3.70;;
28519;SDS011;15732;48.534;20.382;2023-03-01T08:15:05;6.78;;;3.20;;
28519;SDS011;15732;48.534;20.382;2023-03-01T08:17:35;7.78;;;2.58;;
28519;SDS011;15732;48.534;20.382;2023-03-01T08:20:03;6.45;;;2.45;;
28519;SDS011;15732;48.534;20.382;2023-03-01T08:22:32;6.97;;;2.92;;
28519;SDS011;15732;48.534;20.382;2023-03-01T08:25:00;17.73;;;4.13;;
28519;SDS011;15732;48.534;20.382;2023-03-01T08:27:27;8.52;;;2.47;;
28519;SDS011;15732;48.534;20.382;2023-03-01T08:29:55;6.03;;;2.70;;
28519;SDS011;15732;48.534;20.382;2023-03-01T08:32:22;5.20;;;2.25;;
28519;SDS011;15732;48.534;20.382;2023-03-01T08:34:49;7.65;;;2.63;;
28519;SDS011;15732;48.534;20.382;2023-03-01T08:37:21;3.92;;;1.92;;
28519;SDS011;15732;48.534;20.382;2023-03-01T08:39:48;4.72;;;2.00;;
28519;SDS011;15732;48.534;20.382;2023-03-01T08:42:16;5.65;;;2.33;;
28519;SDS011;15732;48.534;20.382;2023-03-01T08:44:43;8.85;;;2.42;;
28519;SDS011;15732;48.534;20.382;2023-03-01T08:47:10;6.93;;;2.78;;
28519;SDS011;15732;48.534;20.382;2023-03-01T08:49:41;6.50;;;2.67;;
28519;SDS011;15732;48.534;20.382;2023-03-01T08:52:09;9.80;;;2.17;;
28519;SDS011;15732;48.534;20.382;2023-03-01T08:54:36;12.70;;;2.85;;
28519;SDS011;15732;48.534;20.382;2023-03-01T08:57:04;8.82;;;2.63;;
28519;SDS011;15732;48.534;20.382;2023-03-01T08:59:35;4.43;;;2.13;;
28519;SDS011;15732;48.534;20.382;2023-03-01T09:02:04;8.35;;;2.90;;
28519;SDS011;15732;48.534;20.382;2023-03-01T09:04:31;5.43;;;2.70;;
28519;SDS011;15732;48.534;20.382;2023-03-01T09:07:02;8.43;;;3.10;;
28519;SDS011;15732;48.534;20.382;2023-03-01T09:09:33;5.85;;;2.08;;
28519;SDS011;15732;48.534;20.382;2023-03-01T09:12:01;6.43;;;3.13;;
28519;SDS011;15732;48.534;20.382;2023-03-01T09:14:28;7.93;;;3.25;;
28519;SDS011;15732;48.534;20.382;2023-03-01T09:16:56;6.85;;;2.70;;
28519;SDS011;15732;48.534;20.382;2023-03-01T09:19:31;6.65;;;2.38;;
28519;SDS011;15732;48.534;20.382;2023-03-01T09:21:58;5.13;;;1.90;;
28519;SDS011;15732;48.534;20.382;2023-03-01T09:24:26;8.25;;;2.47;;
28519;SDS011;15732;48.534;20.382;2023-03-01T09:26:57;4.45;;;1.52;;
28519;SDS011;15732;48.534;20.382;2023-03-01T09:29:24;4.40;;;1.77;;
28519;SDS011;15732;48.534;20.382;2023-03-01T09:31:55;6.63;;;1.98;;
28519;SDS011;15732;48.534;20.382;2023-03-01T09:34:26;3.40;;;1.77;;
28519;SDS011;15732;48.534;20.382;2023-03-01T09:36:54;5.07;;;2.17;;
28519;SDS011;15732;48.534;20.382;2023-03-01T09:41:53;5.05;;;2.17;;
28519;SDS011;15732;48.534;20.382;2023-03-01T09:44:30;2.35;;;1.20;;
28519;SDS011;15732;48.534;20.382;2023-03-01T09:46:59;5.88;;;2.35;;
28519;SDS011;15732;48.534;20.382;2023-03-01T09:49:28;5.85;;;2.53;;
28519;SDS011;15732;48.534;20.382;2023-03-01T09:55:12;6.60;;;2.45;;
28519;SDS011;15732;48.534;20.382;2023-03-01T09:57:49;4.32;;;1.77;;
28519;SDS011;15732;48.534;20.382;2023-03-01T10:00:28;5.30;;;2.42;;
28519;SDS011;15732;48.534;20.382;2023-03-01T10:03:13;3.90;;;1.83;;
28519;SDS011;15732;48.534;20.382;2023-03-01T10:09:05;5.85;;;2.55;;
28519;SDS011;15732;48.534;20.382;2023-03-01T10:11:44;8.10;;;2.65;;
28519;SDS011;15732;48.534;20.382;2023-03-01T10:14:35;10.57;;;3.00;;
28519;SDS011;15732;48.534;20.382;2023-03-01T10:17:37;8.82;;;2.35;;
28519;SDS011;15732;48.534;20.382;2023-03-01T10:20:19;5.38;;;1.70;;
28519;SDS011;15732;48.534;20.382;2023-03-01T10:22:51;4.68;;;2.38;;
28519;SDS011;15732;48.534;20.382;2023-03-01T10:25:22;5.63;;;1.75;;
28519;SDS011;15732;48.534;20.382;2023-03-01T10:31:17;5.57;;;2.55;;
28519;SDS011;15732;48.534;20.382;2023-03-01T10:33:48;5.53;;;2.10;;
28519;SDS011;15732;48.534;20.382;2023-03-01T10:36:21;5.18;;;1.40;;
28519;SDS011;15732;48.534;20.382;2023-03-01T10:38:52;4.50;;;1.95;;
28519;SDS011;15732;48.534;20.382;2023-03-01T10:41:21;5.90;;;2.47;;
28519;SDS011;15732;48.534;20.382;2023-03-01T10:43:50;6.18;;;2.35;;
28519;SDS011;15732;48.534;20.382;2023-03-01T10:51:52;8.32;;;2.45;;
28519;SDS011;15732;48.534;20.382;2023-03-01T10:56:55;4.63;;;1.95;;
28519;SDS011;15732;48.534;20.382;2023-03-01T11:04:36;6.38;;;2.58;;
28519;SDS011;15732;48.534;20.382;2023-03-01T11:07:04;6.57;;;2.00;;
28519;SDS011;15732;48.534;20.382;2023-03-01T11:09:35;6.53;;;2.53;;
28519;SDS011;15732;48.534;20.382;2023-03-01T11:12:13;5.95;;;2.85;;
28519;SDS011;15732;48.534;20.382;2023-03-01T11:14:49;4.00;;;2.10;;
28519;SDS011;15732;48.534;20.382;2023-03-01T11:17:30;6.65;;;3.03;;
28519;SDS011;15732;48.534;20.382;2023-03-01T11:22:59;6.78;;;3.35;;
28519;SDS011;15732;48.534;20.382;2023-03-01T11:25:36;7.32;;;2.90;;
28519;SDS011;15732;48.534;20.382;2023-03-01T11:28:14;6.60;;;3.05;;
28519;SDS011;15732;48.534;20.382;2023-03-01T11:31:09;7.57;;;3.05;;
28519;SDS011;15732;48.534;20.382;2023-03-01T11:39:20;7.05;;;3.13;;
28519;SDS011;15732;48.534;20.382;2023-03-01T11:42:04;6.47;;;2.42;;
28519;SDS011;15732;48.534;20.382;2023-03-01T11:44:43;8.68;;;2.78;;
28519;SDS011;15732;48.534;20.382;2023-03-01T12:00:44;6.10;;;2.42;;
28519;SDS011;15732;48.534;20.382;2023-03-01T12:12:45;4.60;;;1.60;;
28519;SDS011;15732;48.534;20.382;2023-03-01T12:26:31;6.20;;;2.28;;
28519;SDS011;15732;48.534;20.382;2023-03-01T12:37:47;2.78;;;1.33;;
28519;SDS011;15732;48.534;20.382;2023-03-01T12:50:55;7.57;;;2.38;;
28519;SDS011;15732;48.534;20.382;2023-03-01T12:53:46;13.75;;;3.22;;
28519;SDS011;15732;48.534;20.382;2023-03-01T12:56:16;5.78;;;2.17;;
28519;SDS011;15732;48.534;20.382;2023-03-01T12:59:11;8.20;;;1.92;;
28519;SDS011;15732;48.534;20.382;2023-03-01T13:07:47;3.72;;;1.88;;
28519;SDS011;15732;48.534;20.382;2023-03-01T13:10:34;5.18;;;1.45;;
28519;SDS011;15732;48.534;20.382;2023-03-01T13:13:23;3.88;;;1.90;;
28519;SDS011;15732;48.534;20.382;2023-03-01T13:15:51;3.88;;;1.40;;
28519;SDS011;15732;48.534;20.382;2023-03-01T13:20:46;4.32;;;1.90;;
28519;SDS011;15732;48.534;20.382;2023-03-01T13:31:04;3.78;;;1.73;;
28519;SDS011;15732;48.534;20.382;2023-03-01T13:33:56;2.70;;;1.23;;
28519;SDS011;15732;48.534;20.382;2023-03-01T13:39:00;5.30;;;1.13;;
28519;SDS011;15732;48.534;20.382;2023-03-01T13:47:38;4.03;;;1.58;;
28519;SDS011;15732;48.534;20.382;2023-03-01T13:52:45;3.90;;;1.08;;
28519;SDS011;15732;48.534;20.382;2023-03-01T14:01:04;5.35;;;1.45;;
28519;SDS011;15732;48.534;20.382;2023-03-01T14:03:39;5.68;;;2.67;;
28519;SDS011;15732;48.534;20.382;2023-03-01T14:06:15;7.45;;;2.38;;
28519;SDS011;15732;48.534;20.382;2023-03-01T14:08:46;5.85;;;1.80;;
28519;SDS011;15732;48.534;20.382;2023-03-01T14:19:42;5.68;;;1.70;;
28519;SDS011;15732;48.534;20.382;2023-03-01T14:22:23;5.43;;;1.63;;
28519;SDS011;15732;48.534;20.382;2023-03-01T14:27:28;5.68;;;2.28;;
28519;SDS011;15732;48.534;20.382;2023-03-01T14:29:59;3.20;;;1.50;;
28519;SDS011;15732;48.534;20.382;2023-03-01T14:32:29;5.35;;;2.63;;
28519;SDS011;15732;48.534;20.382;2023-03-01T14:34:58;6.63;;;2.28;;
28519;SDS011;15732;48.534;20.382;2023-03-01T14:37:30;2.97;;;1.60;;
28519;SDS011;15732;48.534;20.382;2023-03-01T14:39:59;5.82;;;2.20;;
28519;SDS011;15732;48.534;20.382;2023-03-01T14:42:29;4.22;;;1.80;;
28519;SDS011;15732;48.534;20.382;2023-03-01T14:45:02;6.32;;;2.78;;
28519;SDS011;15732;48.534;20.382;2023-03-01T14:47:34;4.20;;;1.60;;
28519;SDS011;15732;48.534;20.382;2023-03-01T14:50:09;3.70;;;1.52;;
28519;SDS011;15732;48.534;20.382;2023-03-01T14:52:47;3.28;;;1.55;;
28519;SDS011;15732;48.534;20.382;2023-03-01T14:55:18;5.25;;;2.20;;
28519;SDS011;15732;48.534;20.382;2023-03-01T14:57:52;5.68;;;2.58;;
28519;SDS011;15732;48.534;20.382;2023-03-01T15:00:20;4.03;;;2.20;;
28519;SDS011;15732;48.534;20.382;2023-03-01T15:02:53;6.32;;;2.58;;
28519;SDS011;15732;48.534;20.382;2023-03-01T15:05:30;3.42;;;1.50;;
28519;SDS011;15732;48.534;20.382;2023-03-01T15:08:00;5.65;;;1.95;;
28519;SDS011;15732;48.534;20.382;2023-03-01T15:10:30;4.55;;;1.92;;
28519;SDS011;15732;48.534;20.382;2023-03-01T15:13:12;10.45;;;2.70;;
28519;SDS011;15732;48.534;20.382;2023-03-01T15:15:49;4.75;;;1.80;;
28519;SDS011;15732;48.534;20.382;2023-03-01T15:18:21;6.65;;;2.35;;
28519;SDS011;15732;48.534;20.382;2023-03-01T15:20:53;15.70;;;4.50;;
28519;SDS011;15732;48.534;20.382;2023-03-01T15:25:48;4.97;;;1.63;;
28519;SDS011;15732;48.534;20.382;2023-03-01T15:28:48;3.90;;;1.33;;
28519;SDS011;15732;48.534;20.382;2023-03-01T15:31:22;3.83;;;1.70;;
28519;SDS011;15732;48.534;20.382;2023-03-01T15:33:51;4.78;;;1.98;;
28519;SDS011;15732;48.534;20.382;2023-03-01T15:39:50;3.20;;;1.52;;
28519;SDS011;15732;48.534;20.382;2023-03-01T15:41:58;7.43;;;2.10;;
28519;SDS011;15732;48.534;20.382;2023-03-01T15:44:27;3.65;;;1.65;;
28519;SDS011;15732;48.534;20.382;2023-03-01T15:46:58;3.80;;;1.48;;
28519;SDS011;15732;48.534;20.382;2023-03-01T15:52:03;7.43;;;2.03;;
28519;SDS011;15732;48.534;20.382;2023-03-01T15:54:31;2.83;;;1.50;;
28519;SDS011;15732;48.534;20.382;2023-03-01T15:56:59;3.72;;;1.98;;
28519;SDS011;15732;48.534;20.382;2023-03-01T15:59:31;7.50;;;2.00;;
28519;SDS011;15732;48.534;20.382;2023-03-01T16:01:58;3.20;;;1.27;;
28519;SDS011;15732;48.534;20.382;2023-03-01T16:04:30;4.40;;;1.98;;
28519;SDS011;15732;48.534;20.382;2023-03-01T16:07:01;3.15;;;1.30;;
28519;SDS011;15732;48.534;20.382;2023-03-01T16:09:29;9.73;;;3.57;;
28519;SDS011;15732;48.534;20.382;2023-03-01T16:11:56;29.30;;;8.52;;
28519;SDS011;15732;48.534;20.382;2023-03-01T16:14:27;38.22;;;16.33;;
28519;SDS011;15732;48.534;20.382;2023-03-01T16:16:55;57.00;;;20.45;;
28519;SDS011;15732;48.534;20.382;2023-03-01T16:19:26;87.57;;;36.75;;
28519;SDS011;15732;48.534;20.382;2023-03-01T16:21:57;87.07;;;33.05;;
28519;SDS011;15732;48.534;20.382;2023-03-01T16:24:28;92.78;;;34.97;;
28519;SDS011;15732;48.534;20.382;2023-03-01T16:26:56;130.80;;;41.05;;
28519;SDS011;15732;48.534;20.382;2023-03-01T16:29:23;103.43;;;40.75;;
28519;SDS011;15732;48.534;20.382;2023-03-01T16:31:51;150.65;;;42.05;;
28519;SDS011;15732;48.534;20.382;2023-03-01T16:34:18;184.00;;;70.65;;
28519;SDS011;15732;48.534;20.382;2023-03-01T16:36:50;169.43;;;62.72;;
28519;SDS011;15732;48.534;20.382;2023-03-01T16:39:17;160.43;;;58.13;;
28519;SDS011;15732;48.534;20.382;2023-03-01T16:41:45;142.50;;;53.65;;
28519;SDS011;15732;48.534;20.382;2023-03-01T16:44:12;153.43;;;54.40;;
28519;SDS011;15732;48.534;20.382;2023-03-01T16:46:41;146.23;;;52.40;;
28519;SDS011;15732;48.534;20.382;2023-03-01T16:51:36;106.18;;;41.78;;
28519;SDS011;15732;48.534;20.382;2023-03-01T16:54:07;121.95;;;49.22;;
28519;SDS011;15732;48.534;20.382;2023-03-01T16:56:35;117.43;;;46.90;;
28519;SDS011;15732;48.534;20.382;2023-03-01T16:59:04;141.45;;;48.40;;
28519;SDS011;15732;48.534;20.382;2023-03-01T17:01:36;129.57;;;50.05;;
28519;SDS011;15732;48.534;20.382;2023-03-01T17:04:12;137.20;;;50.08;;
28519;SDS011;15732;48.534;20.382;2023-03-01T17:06:39;137.85;;;49.20;;
28519;SDS011;15732;48.534;20.382;2023-03-01T17:09:06;105.13;;;43.67;;
28519;SDS011;15732;48.534;20.382;2023-03-01T17:11:35;103.43;;;40.13;;
28519;SDS011;15732;48.534;20.382;2023-03-01T17:14:02;78.97;;;33.45;;
28519;SDS011;15732;48.534;20.382;2023-03-01T17:16:29;83.25;;;35.50;;
28519;SDS011;15732;48.534;20.382;2023-03-01T17:19:01;54.85;;;22.08;;
28519;SDS011;15732;48.534;20.382;2023-03-01T17:21:28;59.33;;;25.08;;
28519;SDS011;15732;48.534;20.382;2023-03-01T17:23:59;63.13;;;24.52;;
28519;SDS011;15732;48.534;20.382;2023-03-01T17:26:26;80.68;;;27.35;;
28519;SDS011;15732;48.534;20.382;2023-03-01T17:28:54;77.00;;;25.27;;
28519;SDS011;15732;48.534;20.382;2023-03-01T17:31:22;111.63;;;36.93;;